Time;durP1;ratioP1;P1;durP2;ratioP2;P2;SDS_P1;SDS_P2;PMS_P1;PMS_P2;Temp;Humidity;BMP_temperature;BMP_pressure;BME280_temperature;BME280_humidity;BME280_pressure;Samples;Min_cycle;Max_cycle;Signal;HPM_P1;HPM_P2
2023/09/29 00:02:22;;;;;;;1.23;0.90;;;;;;;;;;5006449;28;59053;-80
2023/09/29 00:04:47;;;;;;;1.40;0.97;;;;;;;;;;5007140;28;58534;-79
2023/09/29 00:07:12;;;;;;;1.97;1.20;;;;;;;;;;5007029;28;59270;-79
2023/09/29 00:09:37;;;;;;;0.77;0.77;;;;;;;;;;5004401;28;58387;-79
2023/09/29 00:12:03;;;;;;;1.77;0.90;;;;;;;;;;5006355;28;59236;-80
2023/09/29 00:14:28;;;;;;;1.70;1.17;;;;;;;;;;5007380;28;59124;-79
2023/09/29 00:16:53;;;;;;;0.93;0.80;;;;;;;;;;5005955;28;58700;-79
2023/09/29 00:19:18;;;;;;;1.27;1.00;;;;;;;;;;5003567;28;60003;-81
2023/09/29 00:21:43;;;;;;;1.13;1.00;;;;;;;;;;5004872;28;58745;-80
2023/09/29 00:24:08;;;;;;;1.63;1.03;;;;;;;;;;5005440;28;58413;-80
2023/09/29 00:26:33;;;;;;;1.10;0.90;;;;;;;;;;5005998;28;60029;-81
2023/09/29 00:28:59;;;;;;;1.60;0.95;;;;;;;;;;5006151;28;58723;-78
2023/09/29 00:31:24;;;;;;;1.50;0.88;;;;;;;;;;5007369;28;58341;-80
2023/09/29 00:33:49;;;;;;;0.90;0.90;;;;;;;;;;5005320;28;59190;-80
2023/09/29 00:36:14;;;;;;;1.00;0.95;;;;;;;;;;5005314;28;58551;-80
2023/09/29 00:38:39;;;;;;;1.20;0.90;;;;;;;;;;5005392;28;58720;-80
2023/09/29 00:41:05;;;;;;;0.80;0.80;;;;;;;;;;5004377;28;58473;-81
2023/09/29 00:43:32;;;;;;;1.17;1.08;;;;;;;;;;5006139;28;58351;-79
2023/09/29 00:45:57;;;;;;;1.05;0.95;;;;;;;;;;5004777;28;59476;-80
2023/09/29 00:48:22;;;;;;;1.67;1.10;;;;;;;;;;5004005;28;58608;-80
2023/09/29 00:50:48;;;;;;;0.98;0.88;;;;;;;;;;5003446;28;58903;-81
2023/09/29 00:53:15;;;;;;;0.93;0.93;;;;;;;;;;5004601;28;59338;-80
2023/09/29 00:55:41;;;;;;;1.27;1.15;;;;;;;;;;5005274;28;58316;-81
2023/09/29 00:58:07;;;;;;;1.08;0.95;;;;;;;;;;5005866;28;58609;-80
2023/09/29 01:00:36;;;;;;;1.80;1.50;;;;;;;;;;5005289;28;58801;-80
2023/09/29 01:03:05;;;;;;;1.20;1.10;;;;;;;;;;5006433;28;58608;-81
2023/09/29 01:05:31;;;;;;;2.15;1.50;;;;;;;;;;5003888;28;59576;-80
2023/09/29 01:07:56;;;;;;;1.52;1.40;;;;;;;;;;5005419;28;59143;-80
2023/09/29 01:10:24;;;;;;;1.15;1.00;;;;;;;;;;5004004;28;58504;-79
2023/09/29 01:12:49;;;;;;;0.97;0.97;;;;;;;;;;5005860;28;59669;-80
2023/09/29 01:15:15;;;;;;;1.93;1.70;;;;;;;;;;5001874;28;58441;-79
2023/09/29 01:17:41;;;;;;;1.50;1.40;;;;;;;;;;5006532;28;58870;-79
2023/09/29 01:20:13;;;;;;;1.20;1.10;;;;;;;;;;5004146;28;59048;-79
2023/09/29 01:22:48;;;;;;;1.30;1.20;;;;;;;;;;5005781;28;58469;-80
2023/09/29 01:25:17;;;;;;;1.40;1.30;;;;;;;;;;5002245;28;59617;-80
2023/09/29 01:27:42;;;;;;;1.20;1.15;;;;;;;;;;5005517;28;58644;-80
2023/09/29 01:30:07;;;;;;;1.30;1.20;;;;;;;;;;5004768;28;58573;-79
2023/09/29 01:32:33;;;;;;;1.23;1.13;;;;;;;;;;5004165;28;58485;-79
2023/09/29 01:34:58;;;;;;;1.20;1.10;;;;;;;;;;5005965;28;58362;-80
2023/09/29 01:37:25;;;;;;;1.00;1.00;;;;;;;;;;5002187;28;59433;-79
2023/09/29 01:39:50;;;;;;;1.77;1.40;;;;;;;;;;4999599;28;58816;-80
2023/09/29 01:42:15;;;;;;;1.53;1.43;;;;;;;;;;4997607;28;58315;-80
2023/09/29 01:44:41;;;;;;;1.30;1.20;;;;;;;;;;4997305;28;61505;-80
2023/09/29 01:47:06;;;;;;;1.90;1.70;;;;;;;;;;4997529;28;60128;-78
2023/09/29 01:49:31;;;;;;;1.13;1.13;;;;;;;;;;4998983;28;58266;-79
2023/09/29 01:51:56;;;;;;;1.70;1.60;;;;;;;;;;4997539;28;59092;-79
2023/09/29 01:54:23;;;;;;;1.40;1.30;;;;;;;;;;4997494;28;59246;-80
2023/09/29 01:56:48;;;;;;;1.40;1.30;;;;;;;;;;4997133;28;58456;-79
2023/09/29 01:59:13;;;;;;;2.55;1.52;;;;;;;;;;4998286;28;58704;-79
2023/09/29 02:01:38;;;;;;;2.47;2.27;;;;;;;;;;4998603;28;58380;-80
2023/09/29 02:04:04;;;;;;;1.63;1.53;;;;;;;;;;4997737;28;59322;-81
2023/09/29 02:06:29;;;;;;;1.85;1.75;;;;;;;;;;4996844;28;60010;-79
2023/09/29 02:08:56;;;;;;;1.60;1.50;;;;;;;;;;4997705;28;58437;-80
2023/09/29 02:11:22;;;;;;;1.40;1.30;;;;;;;;;;4996743;28;58561;-80
2023/09/29 02:13:47;;;;;;;2.28;1.92;;;;;;;;;;4998352;28;59094;-79
2023/09/29 02:16:14;;;;;;;1.90;1.80;;;;;;;;;;4997622;28;58334;-79
2023/09/29 02:18:39;;;;;;;1.83;1.70;;;;;;;;;;4998337;28;59638;-79
2023/09/29 02:21:08;;;;;;;2.10;2.00;;;;;;;;;;4998189;28;58600;-80
2023/09/29 02:23:33;;;;;;;1.45;1.35;;;;;;;;;;4997393;28;59578;-79
2023/09/29 02:26:01;;;;;;;1.23;1.23;;;;;;;;;;4998700;28;58579;-80
2023/09/29 02:28:32;;;;;;;2.05;1.95;;;;;;;;;;4998465;28;58396;-80
2023/09/29 02:30:57;;;;;;;2.03;1.83;;;;;;;;;;4996585;28;59977;-80
2023/09/29 02:33:24;;;;;;;1.80;1.70;;;;;;;;;;4995927;28;59659;-80
2023/09/29 02:35:50;;;;;;;1.70;1.60;;;;;;;;;;4994757;28;58438;-80
2023/09/29 02:38:15;;;;;;;1.45;1.35;;;;;;;;;;5000241;28;58847;-80
2023/09/29 02:40:40;;;;;;;1.70;1.60;;;;;;;;;;4996217;28;59141;-79
2023/09/29 02:43:05;;;;;;;1.63;1.53;;;;;;;;;;4996209;28;58446;-80
2023/09/29 02:45:31;;;;;;;1.40;1.30;;;;;;;;;;4997466;28;58851;-81
2023/09/29 02:47:56;;;;;;;2.63;2.07;;;;;;;;;;4995749;28;58378;-80
2023/09/29 02:50:21;;;;;;;1.53;1.43;;;;;;;;;;4996796;28;59475;-80
2023/09/29 02:52:46;;;;;;;1.80;1.70;;;;;;;;;;4992224;28;58929;-79
2023/09/29 02:55:12;;;;;;;2.10;2.00;;;;;;;;;;4993524;28;58595;-80
2023/09/29 02:57:38;;;;;;;2.13;1.73;;;;;;;;;;4996798;28;59737;-80
2023/09/29 03:00:23;;;;;;;2.05;1.95;;;;;;;;;;4994245;28;58723;-80
2023/09/29 03:02:48;;;;;;;2.13;1.95;;;;;;;;;;4997274;28;58390;-80
2023/09/29 03:05:15;;;;;;;1.60;1.50;;;;;;;;;;4996090;28;58997;-80
2023/09/29 03:07:41;;;;;;;2.38;2.17;;;;;;;;;;4998378;28;58558;-80
2023/09/29 03:10:06;;;;;;;2.17;1.98;;;;;;;;;;4994671;28;59500;-80
2023/09/29 03:12:31;;;;;;;2.17;2.08;;;;;;;;;;4995069;28;58540;-80
2023/09/29 03:14:57;;;;;;;1.73;1.63;;;;;;;;;;4995996;28;58530;-80
2023/09/29 03:17:22;;;;;;;1.37;1.33;;;;;;;;;;4996936;28;58612;-80
2023/09/29 03:19:47;;;;;;;2.17;1.97;;;;;;;;;;4994410;28;58594;-81
2023/09/29 03:22:13;;;;;;;2.00;1.88;;;;;;;;;;4995269;28;58410;-84
2023/09/29 03:24:38;;;;;;;1.73;1.63;;;;;;;;;;4995414;28;58949;-83
2023/09/29 03:27:03;;;;;;;2.03;1.92;;;;;;;;;;4998473;28;58506;-82
2023/09/29 03:29:29;;;;;;;2.20;2.10;;;;;;;;;;4995547;28;59904;-84
2023/09/29 03:31:54;;;;;;;2.30;2.10;;;;;;;;;;4998049;28;60810;-84
2023/09/29 03:34:19;;;;;;;1.83;1.73;;;;;;;;;;4997194;28;58573;-85
2023/09/29 03:36:45;;;;;;;1.90;1.80;;;;;;;;;;4996038;28;61413;-83
2023/09/29 03:39:10;;;;;;;2.00;1.90;;;;;;;;;;4993953;28;58801;-83
2023/09/29 03:41:35;;;;;;;1.97;1.87;;;;;;;;;;4991962;28;58451;-82
2023/09/29 03:44:01;;;;;;;2.43;2.23;;;;;;;;;;4994950;28;58477;-83
2023/09/29 03:46:28;;;;;;;2.23;2.10;;;;;;;;;;4997975;28;58499;-83
2023/09/29 03:48:54;;;;;;;1.85;1.75;;;;;;;;;;4995975;28;60511;-83
2023/09/29 03:51:21;;;;;;;2.13;1.93;;;;;;;;;;4995588;28;59159;-84
2023/09/29 03:53:46;;;;;;;2.20;2.00;;;;;;;;;;4994075;28;58457;-83
2023/09/29 03:56:11;;;;;;;2.57;1.80;;;;;;;;;;4992016;28;58600;-84
2023/09/29 03:58:38;;;;;;;1.90;1.80;;;;;;;;;;4997055;28;58427;-83
2023/09/29 04:01:03;;;;;;;1.83;1.73;;;;;;;;;;4998348;28;58670;-83
2023/09/29 04:03:28;;;;;;;1.80;1.70;;;;;;;;;;4998516;28;58870;-84
2023/09/29 04:05:53;;;;;;;2.00;1.90;;;;;;;;;;4995998;28;58670;-83
2023/09/29 04:08:19;;;;;;;2.50;2.35;;;;;;;;;;4993022;28;60269;-84
2023/09/29 04:10:44;;;;;;;1.90;1.80;;;;;;;;;;4996136;28;60326;-84
2023/09/29 04:13:09;;;;;;;2.37;2.17;;;;;;;;;;4995926;28;58505;-84
2023/09/29 04:15:35;;;;;;;1.93;1.77;;;;;;;;;;4995990;28;58879;-84
2023/09/29 04:18:00;;;;;;;2.67;1.65;;;;;;;;;;4989222;28;58981;-83
2023/09/29 04:20:25;;;;;;;1.77;1.63;;;;;;;;;;4994450;28;58433;-84
2023/09/29 04:22:50;;;;;;;2.10;2.00;;;;;;;;;;4995748;28;58551;-83
2023/09/29 04:25:16;;;;;;;2.30;2.10;;;;;;;;;;4995836;28;59229;-84
2023/09/29 04:27:41;;;;;;;2.00;1.90;;;;;;;;;;4998744;28;58397;-84
2023/09/29 04:30:08;;;;;;;2.00;1.90;;;;;;;;;;4999931;28;59040;-84
2023/09/29 04:32:33;;;;;;;2.33;2.20;;;;;;;;;;4997355;28;58452;-84
2023/09/29 04:34:58;;;;;;;2.23;2.13;;;;;;;;;;5000330;28;58862;-84
2023/09/29 04:37:23;;;;;;;1.90;1.80;;;;;;;;;;4995961;28;58916;-83
2023/09/29 04:39:49;;;;;;;1.83;1.70;;;;;;;;;;4999298;28;58423;-78
2023/09/29 04:42:14;;;;;;;1.93;1.83;;;;;;;;;;4998687;28;58453;-80
2023/09/29 04:44:40;;;;;;;1.83;1.73;;;;;;;;;;4996268;28;58747;-81
2023/09/29 04:47:06;;;;;;;2.55;2.35;;;;;;;;;;4999817;28;58442;-79
2023/09/29 04:49:31;;;;;;;2.85;2.00;;;;;;;;;;5005959;28;60288;-75
2023/09/29 04:51:56;;;;;;;1.92;1.83;;;;;;;;;;5004879;28;58452;-77
2023/09/29 04:54:22;;;;;;;3.33;2.03;;;;;;;;;;4999676;28;60420;-78
2023/09/29 04:56:47;;;;;;;1.85;1.75;;;;;;;;;;4989991;28;58354;-77
2023/09/29 04:59:12;;;;;;;2.80;1.88;;;;;;;;;;5001774;28;58370;-77
2023/09/29 05:01:37;;;;;;;1.93;1.73;;;;;;;;;;5004190;28;59612;-77
2023/09/29 05:04:03;;;;;;;2.38;2.15;;;;;;;;;;5003438;28;58453;-77
2023/09/29 05:06:29;;;;;;;1.77;1.67;;;;;;;;;;5000819;28;58501;-77
2023/09/29 05:08:54;;;;;;;2.55;1.92;;;;;;;;;;5003425;28;59864;-77
2023/09/29 05:11:21;;;;;;;2.22;2.05;;;;;;;;;;5004507;28;59264;-78
2023/09/29 05:13:46;;;;;;;2.55;2.35;;;;;;;;;;5004155;28;58467;-78
2023/09/29 05:16:11;;;;;;;2.57;1.90;;;;;;;;;;4999919;28;59302;-78
2023/09/29 05:18:36;;;;;;;2.33;2.13;;;;;;;;;;5000023;28;58522;-78
2023/09/29 05:21:01;;;;;;;2.00;1.90;;;;;;;;;;5001778;28;58453;-78
2023/09/29 05:23:27;;;;;;;2.00;1.90;;;;;;;;;;5003635;28;60196;-78
2023/09/29 05:25:52;;;;;;;2.28;2.08;;;;;;;;;;5003482;28;58499;-79
2023/09/29 05:28:17;;;;;;;2.00;1.90;;;;;;;;;;5004493;28;59673;-79
2023/09/29 05:30:43;;;;;;;1.80;1.70;;;;;;;;;;5003769;28;58921;-78
2023/09/29 05:33:08;;;;;;;2.10;1.90;;;;;;;;;;5001723;28;58397;-79
2023/09/29 05:35:34;;;;;;;1.80;1.70;;;;;;;;;;5003228;28;60582;-77
2023/09/29 05:37:59;;;;;;;2.10;1.92;;;;;;;;;;5002607;28;58399;-77
2023/09/29 05:40:24;;;;;;;2.13;2.00;;;;;;;;;;5000406;28;61078;-78
2023/09/29 05:42:49;;;;;;;1.60;1.50;;;;;;;;;;5001387;28;58350;-78
2023/09/29 05:45:14;;;;;;;3.30;2.23;;;;;;;;;;4997947;28;58877;-78
2023/09/29 05:47:39;;;;;;;1.93;1.83;;;;;;;;;;5001227;28;59225;-78
2023/09/29 05:50:05;;;;;;;1.77;1.67;;;;;;;;;;5003756;28;59047;-78
2023/09/29 05:52:31;;;;;;;2.08;1.88;;;;;;;;;;5003384;28;58437;-81
2023/09/29 05:54:56;;;;;;;2.05;1.95;;;;;;;;;;5003187;28;59262;-81
2023/09/29 05:57:22;;;;;;;2.17;1.80;;;;;;;;;;5002962;28;58624;-82
2023/09/29 05:59:47;;;;;;;2.20;2.00;;;;;;;;;;5003459;28;60609;-81
2023/09/29 06:02:12;;;;;;;1.73;1.63;;;;;;;;;;5002479;28;59099;-81
2023/09/29 06:04:37;;;;;;;2.17;2.00;;;;;;;;;;5005704;28;58393;-81
2023/09/29 06:07:02;;;;;;;2.15;1.95;;;;;;;;;;5004226;28;58914;-81
2023/09/29 06:09:28;;;;;;;2.03;1.90;;;;;;;;;;5002467;28;59600;-82
2023/09/29 06:11:54;;;;;;;1.88;1.77;;;;;;;;;;5003411;28;58417;-81
2023/09/29 06:14:19;;;;;;;1.75;1.65;;;;;;;;;;5003827;28;58836;-82
2023/09/29 06:16:44;;;;;;;2.07;1.90;;;;;;;;;;5004669;28;58545;-82
2023/09/29 06:19:09;;;;;;;1.80;1.70;;;;;;;;;;5004511;28;59122;-81
2023/09/29 06:21:35;;;;;;;1.87;1.60;;;;;;;;;;5003220;28;58745;-81
2023/09/29 06:24:00;;;;;;;2.03;1.90;;;;;;;;;;5004320;28;58349;-81
2023/09/29 06:26:26;;;;;;;3.13;2.10;;;;;;;;;;5002860;28;61077;-74
2023/09/29 06:28:51;;;;;;;3.20;1.85;;;;;;;;;;5003606;28;58365;-75
2023/09/29 06:31:16;;;;;;;1.60;1.50;;;;;;;;;;5002901;28;58481;-75
2023/09/29 06:33:42;;;;;;;1.70;1.60;;;;;;;;;;5004362;28;60466;-73
2023/09/29 06:36:07;;;;;;;1.60;1.50;;;;;;;;;;5003327;28;58884;-76
2023/09/29 06:38:33;;;;;;;2.00;1.90;;;;;;;;;;5005164;28;60264;-76
2023/09/29 06:40:58;;;;;;;1.83;1.73;;;;;;;;;;5003112;28;59270;-74
2023/09/29 06:43:24;;;;;;;1.73;1.63;;;;;;;;;;5003128;28;58385;-74
2023/09/29 06:45:49;;;;;;;1.73;1.63;;;;;;;;;;5002331;28;60042;-74
2023/09/29 06:48:14;;;;;;;1.92;1.83;;;;;;;;;;5002883;28;59281;-73
2023/09/29 06:50:39;;;;;;;1.73;1.63;;;;;;;;;;5003952;28;58425;-74
2023/09/29 06:53:05;;;;;;;1.80;1.70;;;;;;;;;;5004113;28;59640;-73
2023/09/29 06:55:31;;;;;;;1.60;1.50;;;;;;;;;;5002068;28;58851;-74
2023/09/29 06:57:56;;;;;;;3.15;1.70;;;;;;;;;;5002677;28;58499;-74
2023/09/29 07:00:21;;;;;;;2.00;1.80;;;;;;;;;;5003425;28;58978;-73
2023/09/29 07:02:46;;;;;;;1.80;1.67;;;;;;;;;;5004260;28;58732;-75
2023/09/29 07:05:11;;;;;;;1.50;1.40;;;;;;;;;;5004474;28;58477;-75
2023/09/29 07:07:36;;;;;;;1.60;1.50;;;;;;;;;;5003318;28;59107;-73
2023/09/29 07:10:02;;;;;;;1.53;1.43;;;;;;;;;;5000184;28;58509;-74
2023/09/29 07:12:27;;;;;;;1.70;1.60;;;;;;;;;;5001864;28;60553;-74
2023/09/29 07:14:53;;;;;;;2.27;1.73;;;;;;;;;;5002673;28;59144;-73
2023/09/29 07:17:18;;;;;;;1.60;1.50;;;;;;;;;;5003355;28;58412;-72
2023/09/29 07:19:44;;;;;;;1.60;1.50;;;;;;;;;;5005190;28;58619;-74
2023/09/29 07:22:09;;;;;;;1.50;1.40;;;;;;;;;;5003029;28;58336;-74
2023/09/29 07:24:34;;;;;;;1.40;1.30;;;;;;;;;;5002797;28;59751;-75
2023/09/29 07:26:59;;;;;;;1.37;1.30;;;;;;;;;;5001768;28;59167;-75
2023/09/29 07:29:25;;;;;;;1.37;1.27;;;;;;;;;;5003198;28;58372;-75
2023/09/29 07:31:50;;;;;;;1.10;1.05;;;;;;;;;;5003994;28;58426;-74
2023/09/29 07:34:15;;;;;;;1.48;1.38;;;;;;;;;;5002893;28;58491;-75
2023/09/29 07:36:43;;;;;;;1.02;1.00;;;;;;;;;;5003362;28;58441;-74
2023/09/29 07:39:08;;;;;;;1.40;1.30;;;;;;;;;;5001727;28;58489;-75
2023/09/29 07:41:33;;;;;;;1.77;1.67;;;;;;;;;;5003137;28;58484;-75
2023/09/29 07:43:58;;;;;;;1.70;1.37;;;;;;;;;;5004291;28;59730;-75
2023/09/29 07:46:24;;;;;;;1.60;1.50;;;;;;;;;;5001678;28;59858;-74
2023/09/29 07:48:49;;;;;;;1.07;1.00;;;;;;;;;;5002819;28;58431;-74
2023/09/29 07:51:14;;;;;;;2.50;1.67;;;;;;;;;;4998573;28;58504;-75
2023/09/29 07:53:39;;;;;;;1.60;1.50;;;;;;;;;;4998982;28;60052;-76
2023/09/29 07:56:05;;;;;;;1.53;1.43;;;;;;;;;;4997463;28;58397;-75
2023/09/29 07:58:30;;;;;;;1.63;1.33;;;;;;;;;;5002214;28;59548;-75
2023/09/29 08:00:55;;;;;;;1.30;1.13;;;;;;;;;;5001739;28;59519;-75
2023/09/29 08:03:20;;;;;;;1.40;1.20;;;;;;;;;;5002861;28;59902;-76
2023/09/29 08:05:45;;;;;;;1.40;1.30;;;;;;;;;;5003726;28;60072;-76
2023/09/29 08:08:11;;;;;;;1.60;1.13;;;;;;;;;;5004607;28;58649;-76
2023/09/29 08:10:36;;;;;;;0.90;0.90;;;;;;;;;;5002869;28;59241;-75
2023/09/29 08:13:01;;;;;;;1.20;1.10;;;;;;;;;;5004271;28;58926;-75
2023/09/29 08:15:26;;;;;;;1.57;1.47;;;;;;;;;;5002877;28;58842;-75
2023/09/29 08:17:51;;;;;;;1.30;1.20;;;;;;;;;;5002258;28;59294;-75
2023/09/29 08:20:18;;;;;;;1.60;1.50;;;;;;;;;;5002759;28;58714;-75
2023/09/29 08:22:43;;;;;;;1.05;0.95;;;;;;;;;;5004871;28;58762;-75
2023/09/29 08:25:09;;;;;;;1.67;1.20;;;;;;;;;;5002324;28;58541;-77
2023/09/29 08:27:35;;;;;;;1.27;1.05;;;;;;;;;;5000404;28;59944;-76
2023/09/29 08:30:00;;;;;;;1.23;1.10;;;;;;;;;;5003318;28;60093;-76
2023/09/29 08:32:25;;;;;;;1.40;1.03;;;;;;;;;;5002033;28;59201;-74
2023/09/29 08:34:50;;;;;;;0.80;0.80;;;;;;;;;;5002006;28;58439;-74
2023/09/29 08:37:16;;;;;;;1.00;1.00;;;;;;;;;;5001900;28;58533;-72
2023/09/29 08:39:41;;;;;;;1.30;1.20;;;;;;;;;;4998625;28;58845;-73
2023/09/29 08:42:12;;;;;;;1.40;1.30;;;;;;;;;;5003482;28;58530;-73
2023/09/29 08:44:39;;;;;;;0.90;0.90;;;;;;;;;;5003360;28;60180;-73
2023/09/29 08:47:06;;;;;;;1.43;1.33;;;;;;;;;;4998720;28;58444;-74
2023/09/29 08:49:32;;;;;;;1.40;1.30;;;;;;;;;;5001335;28;60419;-73
2023/09/29 08:52:00;;;;;;;1.58;1.48;;;;;;;;;;5002564;28;59920;-72
2023/09/29 08:54:27;;;;;;;1.70;1.30;;;;;;;;;;5001001;28;58354;-73
2023/09/29 08:56:52;;;;;;;1.08;1.08;;;;;;;;;;5002176;28;59963;-74
2023/09/29 08:59:17;;;;;;;1.50;1.10;;;;;;;;;;5003303;28;59421;-73
2023/09/29 09:01:43;;;;;;;0.90;0.90;;;;;;;;;;5004982;28;58452;-73
2023/09/29 09:04:08;;;;;;;1.48;1.38;;;;;;;;;;5003960;28;59515;-72
2023/09/29 09:06:34;;;;;;;1.48;1.20;;;;;;;;;;5003574;28;58658;-74
2023/09/29 09:08:59;;;;;;;1.83;1.30;;;;;;;;;;5002063;28;59502;-73
2023/09/29 09:11:24;;;;;;;1.03;1.00;;;;;;;;;;5002072;28;58944;-72
2023/09/29 09:13:59;;;;;;;0.90;0.90;;;;;;;;;;5004155;28;58468;-75
2023/09/29 09:16:26;;;;;;;1.63;1.52;;;;;;;;;;5004195;28;64986;-74
2023/09/29 09:18:51;;;;;;;1.40;1.30;;;;;;;;;;5003245;28;59082;-74
2023/09/29 09:21:16;;;;;;;1.10;1.10;;;;;;;;;;5003136;28;58557;-73
2023/09/29 09:23:41;;;;;;;1.60;1.50;;;;;;;;;;5003678;28;59654;-75
2023/09/29 09:26:16;;;;;;;1.30;1.20;;;;;;;;;;5002076;28;59788;-73
2023/09/29 09:28:42;;;;;;;1.20;1.10;;;;;;;;;;5005775;28;58418;-75
2023/09/29 09:31:07;;;;;;;1.25;1.15;;;;;;;;;;5001270;28;59149;-73
2023/09/29 09:33:33;;;;;;;1.13;1.10;;;;;;;;;;5004536;28;58755;-73
2023/09/29 09:36:06;;;;;;;1.02;1.00;;;;;;;;;;5003544;28;58705;-75
2023/09/29 09:38:34;;;;;;;1.30;1.10;;;;;;;;;;5003306;28;59183;-72
2023/09/29 09:41:00;;;;;;;1.40;1.30;;;;;;;;;;5004907;28;58530;-73
2023/09/29 09:43:26;;;;;;;0.82;0.82;;;;;;;;;;5004740;28;60201;-75
2023/09/29 09:45:52;;;;;;;0.80;0.80;;;;;;;;;;5002402;28;59883;-75
2023/09/29 09:48:20;;;;;;;1.10;1.08;;;;;;;;;;5002692;28;58647;-75
2023/09/29 09:50:48;;;;;;;1.30;1.20;;;;;;;;;;5004075;28;59966;-74
2023/09/29 09:53:13;;;;;;;;;;;;;;;;;;5004013;28;58577;-75
2023/09/29 09:55:40;;;;;;;1.15;1.08;;;;;;;;;;5003942;28;58749;-74
2023/09/29 09:58:13;;;;;;;1.17;0.98;;;;;;;;;;5003380;28;58853;-74
2023/09/29 10:00:42;;;;;;;1.65;1.08;;;;;;;;;;5002786;28;58498;-76
2023/09/29 10:03:11;;;;;;;1.10;1.00;;;;;;;;;;5003625;28;59540;-74
2023/09/29 10:05:40;;;;;;;0.95;0.93;;;;;;;;;;5003697;28;59938;-74
2023/09/29 10:08:05;;;;;;;1.38;1.27;;;;;;;;;;5003603;28;58302;-76
2023/09/29 10:10:32;;;;;;;0.80;0.80;;;;;;;;;;5003821;28;60391;-77
2023/09/29 10:13:00;;;;;;;1.13;1.00;;;;;;;;;;5002343;28;58381;-74
2023/09/29 10:15:32;;;;;;;0.65;0.65;;;;;;;;;;5002840;28;60577;-75
2023/09/29 10:18:12;;;;;;;1.00;1.00;;;;;;;;;;5002821;28;58507;-74
2023/09/29 10:20:37;;;;;;;0.80;0.80;;;;;;;;;;5004242;28;58452;-74
2023/09/29 10:23:09;;;;;;;1.00;0.80;;;;;;;;;;5005848;28;59038;-74
2023/09/29 10:25:38;;;;;;;1.48;1.30;;;;;;;;;;5005115;28;58623;-74
2023/09/29 10:28:07;;;;;;;1.10;0.98;;;;;;;;;;5003381;28;58915;-76
2023/09/29 10:30:33;;;;;;;1.20;1.10;;;;;;;;;;5004565;28;60329;-76
2023/09/29 10:33:06;;;;;;;0.80;0.80;;;;;;;;;;5003696;28;58993;-76
2023/09/29 10:35:33;;;;;;;1.02;0.95;;;;;;;;;;5004185;28;59377;-76
2023/09/29 10:38:03;;;;;;;0.87;0.87;;;;;;;;;;5003919;28;60132;-76
2023/09/29 10:40:32;;;;;;;0.98;0.90;;;;;;;;;;5003511;28;58447;-76
2023/09/29 10:43:04;;;;;;;0.85;0.85;;;;;;;;;;5003663;28;59848;-76
2023/09/29 10:45:36;;;;;;;0.60;0.60;;;;;;;;;;5001986;28;59878;-76
2023/09/29 10:48:06;;;;;;;0.95;0.85;;;;;;;;;;5002737;28;58611;-75
2023/09/29 10:50:37;;;;;;;0.70;0.70;;;;;;;;;;5000689;28;58517;-76
2023/09/29 10:53:02;;;;;;;0.85;0.85;;;;;;;;;;4999031;28;58472;-74
2023/09/29 10:55:28;;;;;;;0.80;0.80;;;;;;;;;;4999722;28;58368;-75
2023/09/29 10:57:57;;;;;;;0.90;0.90;;;;;;;;;;5001510;28;59803;-77
2023/09/29 11:00:22;;;;;;;0.80;0.80;;;;;;;;;;5002269;28;58487;-77
2023/09/29 11:02:49;;;;;;;1.33;1.23;;;;;;;;;;4999742;28;58452;-76
2023/09/29 11:05:14;;;;;;;0.88;0.88;;;;;;;;;;5000997;28;59015;-76
2023/09/29 11:07:47;;;;;;;1.13;0.93;;;;;;;;;;5003237;28;58612;-75
2023/09/29 11:10:12;;;;;;;0.70;0.70;;;;;;;;;;4996477;28;59463;-76
2023/09/29 11:12:40;;;;;;;0.77;0.77;;;;;;;;;;4998909;28;59925;-75
2023/09/29 11:15:07;;;;;;;1.10;1.00;;;;;;;;;;5000888;28;59364;-75
2023/09/29 11:17:44;;;;;;;0.60;0.60;;;;;;;;;;5002895;28;60281;-74
2023/09/29 11:20:14;;;;;;;0.70;0.70;;;;;;;;;;5000588;28;58483;-78
2023/09/29 11:22:39;;;;;;;0.82;0.82;;;;;;;;;;5003300;28;59444;-76
2023/09/29 11:25:15;;;;;;;0.73;0.70;;;;;;;;;;5003145;28;58934;-77
2023/09/29 11:27:47;;;;;;;0.90;0.90;;;;;;;;;;5015158;28;58422;-77
2023/09/29 11:30:13;;;;;;;0.88;0.88;;;;;;;;;;5002945;28;59056;-77
2023/09/29 11:32:38;;;;;;;1.02;0.98;;;;;;;;;;5000853;28;58765;-76
2023/09/29 11:35:06;;;;;;;0.80;0.80;;;;;;;;;;5002336;28;58436;-77
2023/09/29 11:37:38;;;;;;;1.13;1.02;;;;;;;;;;5001295;28;61134;-76
2023/09/29 11:40:11;;;;;;;0.60;0.60;;;;;;;;;;5002656;28;58409;-77
2023/09/29 11:42:36;;;;;;;0.93;0.80;;;;;;;;;;5000207;28;59582;-77
2023/09/29 11:45:07;;;;;;;0.73;0.70;;;;;;;;;;5000215;28;58598;-78
2023/09/29 11:47:33;;;;;;;0.80;0.80;;;;;;;;;;5000288;28;58484;-76
2023/09/29 11:49:58;;;;;;;0.80;0.80;;;;;;;;;;5004139;28;60407;-76
2023/09/29 11:52:23;;;;;;;0.60;0.60;;;;;;;;;;5001428;28;59234;-77
2023/09/29 11:54:49;;;;;;;0.80;0.80;;;;;;;;;;5002814;28;58593;-76
2023/09/29 11:57:14;;;;;;;0.70;0.70;;;;;;;;;;5002547;28;59663;-78
2023/09/29 11:59:40;;;;;;;0.60;0.60;;;;;;;;;;5001660;28;59825;-76
2023/09/29 12:02:05;;;;;;;0.60;0.60;;;;;;;;;;5003384;28;59799;-77
2023/09/29 12:04:30;;;;;;;0.57;0.57;;;;;;;;;;5003336;28;59009;-77
2023/09/29 12:06:55;;;;;;;0.80;0.80;;;;;;;;;;5003802;28;58528;-76
2023/09/29 12:09:22;;;;;;;0.93;0.93;;;;;;;;;;5001635;28;58836;-77
2023/09/29 12:11:47;;;;;;;0.52;0.52;;;;;;;;;;5001890;28;58856;-77
2023/09/29 12:14:12;;;;;;;0.80;0.80;;;;;;;;;;5001772;28;58436;-78
2023/09/29 12:16:38;;;;;;;1.07;1.00;;;;;;;;;;5000385;28;60185;-77
2023/09/29 12:19:03;;;;;;;0.80;0.80;;;;;;;;;;4999758;28;59888;-77
2023/09/29 12:21:28;;;;;;;0.83;0.83;;;;;;;;;;5001567;28;58599;-77
2023/09/29 12:23:54;;;;;;;0.63;0.63;;;;;;;;;;4998343;28;58846;-76
2023/09/29 12:26:19;;;;;;;0.90;0.90;;;;;;;;;;4996513;28;58448;-78
2023/09/29 12:28:45;;;;;;;1.00;1.00;;;;;;;;;;4999485;28;59398;-77
2023/09/29 12:31:14;;;;;;;0.50;0.50;;;;;;;;;;5001092;28;58583;-76
2023/09/29 12:33:40;;;;;;;0.77;0.60;;;;;;;;;;5002624;28;58500;-76
2023/09/29 12:36:05;;;;;;;0.88;0.70;;;;;;;;;;5003061;28;60097;-77
2023/09/29 12:38:31;;;;;;;0.60;0.60;;;;;;;;;;5002713;28;58885;-77
2023/09/29 12:40:56;;;;;;;0.70;0.70;;;;;;;;;;5003502;28;58233;-78
2023/09/29 12:43:21;;;;;;;0.88;0.82;;;;;;;;;;5003071;28;60330;-77
2023/09/29 12:45:47;;;;;;;1.43;0.90;;;;;;;;;;5004092;28;58394;-77
2023/09/29 12:48:12;;;;;;;0.70;0.67;;;;;;;;;;5006125;28;60417;-77
2023/09/29 12:50:39;;;;;;;0.87;0.73;;;;;;;;;;5007493;28;58749;-77
2023/09/29 12:53:04;;;;;;;1.00;0.90;;;;;;;;;;5003767;28;58353;-77
2023/09/29 12:55:29;;;;;;;1.07;0.90;;;;;;;;;;5006344;28;59520;-78
2023/09/29 12:57:55;;;;;;;0.60;0.60;;;;;;;;;;5003076;28;60077;-77
2023/09/29 13:00:22;;;;;;;0.70;0.70;;;;;;;;;;5007039;28;58398;-77
2023/09/29 13:02:51;;;;;;;1.00;1.00;;;;;;;;;;5003794;28;59594;-77
2023/09/29 13:05:16;;;;;;;0.73;0.60;;;;;;;;;;5006600;28;58944;-77
2023/09/29 13:07:42;;;;;;;0.70;0.70;;;;;;;;;;5007415;28;59173;-77
2023/09/29 13:10:08;;;;;;;0.80;0.80;;;;;;;;;;5005107;28;58964;-76
2023/09/29 13:12:33;;;;;;;0.70;0.70;;;;;;;;;;5005609;28;58754;-79
2023/09/29 13:14:58;;;;;;;0.40;0.40;;;;;;;;;;5005572;28;59460;-76
2023/09/29 13:17:23;;;;;;;0.70;0.60;;;;;;;;;;5000622;28;59318;-77
2023/09/29 13:19:48;;;;;;;0.80;0.60;;;;;;;;;;5000736;28;58499;-71
2023/09/29 13:22:13;;;;;;;0.87;0.87;;;;;;;;;;5005721;28;58704;-80
2023/09/29 13:24:39;;;;;;;0.70;0.70;;;;;;;;;;5003286;28;58679;-78
2023/09/29 13:27:04;;;;;;;1.07;0.70;;;;;;;;;;5006475;28;58529;-80
2023/09/29 13:29:29;;;;;;;0.60;0.60;;;;;;;;;;5006605;28;58353;-77
2023/09/29 13:31:54;;;;;;;2.53;1.07;;;;;;;;;;5005235;28;58687;-71
2023/09/29 13:34:20;;;;;;;8.43;1.10;;;;;;;;;;5004308;28;60042;-77
2023/09/29 13:36:45;;;;;;;3.03;1.00;;;;;;;;;;5001708;28;59008;-72
2023/09/29 13:39:11;;;;;;;1.43;1.33;;;;;;;;;;5004320;28;58481;-76
2023/09/29 13:41:36;;;;;;;1.83;1.17;;;;;;;;;;5002767;28;60123;-75
2023/09/29 13:44:01;;;;;;;2.77;1.10;;;;;;;;;;5003804;28;59268;-73
2023/09/29 13:46:26;;;;;;;1.60;0.90;;;;;;;;;;5005779;28;58518;-78
2023/09/29 13:48:52;;;;;;;1.50;1.05;;;;;;;;;;5005890;28;60240;-80
2023/09/29 13:51:17;;;;;;;2.00;1.00;;;;;;;;;;5004823;28;58421;-74
2023/09/29 13:53:43;;;;;;;5.90;1.43;;;;;;;;;;5005263;28;58627;-73
2023/09/29 13:56:09;;;;;;;1.37;1.13;;;;;;;;;;4997954;28;59759;-76
2023/09/29 13:58:35;;;;;;;1.23;1.13;;;;;;;;;;5003727;28;58426;-75
2023/09/29 14:01:01;;;;;;;1.92;1.27;;;;;;;;;;5006985;28;58646;-80
2023/09/29 14:03:26;;;;;;;2.00;0.90;;;;;;;;;;5002761;28;60189;-80
2023/09/29 14:05:51;;;;;;;1.63;1.53;;;;;;;;;;5003927;28;58366;-78
2023/09/29 14:08:16;;;;;;;1.48;0.90;;;;;;;;;;5007409;28;59405;-79
2023/09/29 14:10:42;;;;;;;2.97;1.20;;;;;;;;;;5005305;28;58472;-79
2023/09/29 14:13:07;;;;;;;1.98;1.27;;;;;;;;;;5007674;28;59291;-78
2023/09/29 14:15:36;;;;;;;4.00;0.90;;;;;;;;;;5008153;28;58638;-79
2023/09/29 14:18:01;;;;;;;9.60;1.27;;;;;;;;;;5010863;28;58509;-79
2023/09/29 14:20:29;;;;;;;1.97;1.10;;;;;;;;;;5006410;28;59365;-78
2023/09/29 14:22:54;;;;;;;1.48;0.93;;;;;;;;;;5007043;28;59355;-78
2023/09/29 14:25:20;;;;;;;1.58;0.90;;;;;;;;;;5001575;28;58440;-77
2023/09/29 14:27:45;;;;;;;1.20;0.93;;;;;;;;;;4999288;28;58744;-78
2023/09/29 14:30:10;;;;;;;1.17;1.02;;;;;;;;;;5001786;28;58529;-78
2023/09/29 14:32:35;;;;;;;1.08;1.00;;;;;;;;;;5004504;28;58397;-77
2023/09/29 14:35:00;;;;;;;0.67;0.57;;;;;;;;;;5004739;28;59604;-77
2023/09/29 14:37:26;;;;;;;1.47;1.23;;;;;;;;;;5006305;28;58461;-77